sensor_id;sensor_type;location;lat;lon;timestamp;pressure;altitude;pressure_sealevel;temperature;humidity
51359;BME280;37448;51.588;7.248;2023-03-08T00:01:48;99480.09;;;-0.78;97.17
51359;BME280;37448;51.588;7.248;2023-03-08T00:03:52;99471.56;;;-0.78;97.27
51359;BME280;37448;51.588;7.248;2023-03-08T00:05:53;99478.38;;;-0.80;97.14
51359;BME280;37448;51.588;7.248;2023-03-08T00:07:54;99475.81;;;-0.83;97.16
51359;BME280;37448;51.588;7.248;2023-03-08T00:09:55;99478.38;;;-0.83;97.23
51359;BME280;37448;51.588;7.248;2023-03-08T00:11:55;99478.38;;;-0.82;97.67
51359;BME280;37448;51.588;7.248;2023-03-08T00:13:56;99475.81;;;-0.80;97.69
51359;BME280;37448;51.588;7.248;2023-03-08T00:16:01;99473.28;;;-0.77;97.80
51359;BME280;37448;51.588;7.248;2023-03-08T00:18:04;99478.41;;;-0.77;97.83
51359;BME280;37448;51.588;7.248;2023-03-08T00:20:06;99476.72;;;-0.75;97.94
51359;BME280;37448;51.588;7.248;2023-03-08T00:22:07;99474.13;;;-0.74;98.12
51359;BME280;37448;51.588;7.248;2023-03-08T00:24:07;99479.28;;;-0.72;97.91
51359;BME280;37448;51.588;7.248;2023-03-08T00:26:09;99476.72;;;-0.69;98.14
51359;BME280;37448;51.588;7.248;2023-03-08T00:28:10;99472.47;;;-0.68;98.30
51359;BME280;37448;51.588;7.248;2023-03-08T00:30:11;99469.06;;;-0.67;98.45
51359;BME280;37448;51.588;7.248;2023-03-08T00:32:11;99475.91;;;-0.65;98.78
51359;BME280;37448;51.588;7.248;2023-03-08T00:34:12;99471.63;;;-0.63;98.31
51359;BME280;37448;51.588;7.248;2023-03-08T00:36:16;99460.53;;;-0.63;98.57
51359;BME280;37448;51.588;7.248;2023-03-08T00:38:17;99463.09;;;-0.62;98.65
51359;BME280;37448;51.588;7.248;2023-03-08T00:40:18;99459.72;;;-0.57;98.40
51359;BME280;37448;51.588;7.248;2023-03-08T00:42:19;99465.72;;;-0.52;98.80
51359;BME280;37448;51.588;7.248;2023-03-08T00:44:20;99464.00;;;-0.55;98.81
51359;BME280;37448;51.588;7.248;2023-03-08T00:46:20;99470.81;;;-0.54;98.52
51359;BME280;37448;51.588;7.248;2023-03-08T00:48:21;99473.41;;;-0.52;98.85
51359;BME280;37448;51.588;7.248;2023-03-08T00:50:22;99478.56;;;-0.52;98.79
51359;BME280;37448;51.588;7.248;2023-03-08T00:52:22;99473.44;;;-0.49;98.93
51359;BME280;37448;51.588;7.248;2023-03-08T00:54:23;99482.00;;;-0.47;99.08
51359;BME280;37448;51.588;7.248;2023-03-08T00:56:23;99478.56;;;-0.46;99.16
51359;BME280;37448;51.588;7.248;2023-03-08T00:58:25;99468.31;;;-0.43;99.00
51359;BME280;37448;51.588;7.248;2023-03-08T01:00:26;99463.19;;;-0.46;98.95
51359;BME280;37448;51.588;7.248;2023-03-08T01:02:27;99464.84;;;-0.53;98.65
51359;BME280;37448;51.588;7.248;2023-03-08T01:04:32;99472.56;;;-0.48;98.84
51359;BME280;37448;51.588;7.248;2023-03-08T01:06:32;99457.19;;;-0.51;98.77
51359;BME280;37448;51.588;7.248;2023-03-08T01:08:33;99445.19;;;-0.54;98.61
51359;BME280;37448;51.588;7.248;2023-03-08T01:10:34;99446.88;;;-0.56;98.62
51359;BME280;37448;51.588;7.248;2023-03-08T01:12:35;99461.41;;;-0.60;98.55
51359;BME280;37448;51.588;7.248;2023-03-08T01:14:36;99454.53;;;-0.61;98.50
51359;BME280;37448;51.588;7.248;2023-03-08T01:16:37;99455.44;;;-0.57;98.66
51359;BME280;37448;51.588;7.248;2023-03-08T01:18:37;99452.88;;;-0.55;98.96
51359;BME280;37448;51.588;7.248;2023-03-08T01:20:38;99454.59;;;-0.54;98.47
51359;BME280;37448;51.588;7.248;2023-03-08T01:22:38;99449.47;;;-0.51;99.09
51359;BME280;37448;51.588;7.248;2023-03-08T01:24:46;99449.50;;;-0.48;99.07
51359;BME280;37448;51.588;7.248;2023-03-08T01:26:46;99448.66;;;-0.46;99.17
51359;BME280;37448;51.588;7.248;2023-03-08T01:28:47;99433.25;;;-0.47;99.14
51359;BME280;37448;51.588;7.248;2023-03-08T01:30:48;99438.41;;;-0.42;99.31
51359;BME280;37448;51.588;7.248;2023-03-08T01:32:48;99435.00;;;-0.41;99.46
51359;BME280;37448;51.588;7.248;2023-03-08T01:34:49;99432.41;;;-0.37;99.40
51359;BME280;37448;51.588;7.248;2023-03-08T01:36:49;99429.03;;;-0.34;99.53
51359;BME280;37448;51.588;7.248;2023-03-08T01:38:51;99431.59;;;-0.37;99.41
51359;BME280;37448;51.588;7.248;2023-03-08T01:40:56;99427.31;;;-0.34;99.43
51359;BME280;37448;51.588;7.248;2023-03-08T01:42:57;99429.88;;;-0.32;99.06
51359;BME280;37448;51.588;7.248;2023-03-08T01:45:03;99423.91;;;-0.30;99.51
51359;BME280;37448;51.588;7.248;2023-03-08T01:47:12;99424.78;;;-0.31;99.18
51359;BME280;37448;51.588;7.248;2023-03-08T01:49:36;99423.91;;;-0.26;99.17
51359;BME280;37448;51.588;7.248;2023-03-08T01:51:42;99419.66;;;-0.24;99.47
51359;BME280;37448;51.588;7.248;2023-03-08T01:53:43;99418.78;;;-0.26;99.24
51359;BME280;37448;51.588;7.248;2023-03-08T01:55:44;99419.66;;;-0.27;99.15
51359;BME280;37448;51.588;7.248;2023-03-08T01:57:48;99415.38;;;-0.28;99.23
51359;BME280;37448;51.588;7.248;2023-03-08T01:59:52;99417.06;;;-0.27;99.19
51359;BME280;37448;51.588;7.248;2023-03-08T02:01:54;99409.38;;;-0.26;99.19
51359;BME280;37448;51.588;7.248;2023-03-08T02:03:55;99408.53;;;-0.30;99.05
51359;BME280;37448;51.588;7.248;2023-03-08T02:05:56;99404.25;;;-0.27;99.07
51359;BME280;37448;51.588;7.248;2023-03-08T02:07:57;99402.53;;;-0.27;99.36
51359;BME280;37448;51.588;7.248;2023-03-08T02:10:01;99393.13;;;-0.23;99.31
51359;BME280;37448;51.588;7.248;2023-03-08T02:12:05;99385.41;;;-0.25;99.38
51359;BME280;37448;51.588;7.248;2023-03-08T02:14:08;99388.00;;;-0.26;99.20
51359;BME280;37448;51.588;7.248;2023-03-08T02:16:12;99387.16;;;-0.25;99.33
51359;BME280;37448;51.588;7.248;2023-03-08T02:18:13;99379.44;;;-0.22;99.42
51359;BME280;37448;51.588;7.248;2023-03-08T02:20:17;99375.16;;;-0.25;99.09
51359;BME280;37448;51.588;7.248;2023-03-08T02:22:20;99376.03;;;-0.23;99.28
51359;BME280;37448;51.588;7.248;2023-03-08T02:24:22;99368.34;;;-0.21;99.37
51359;BME280;37448;51.588;7.248;2023-03-08T02:26:23;99365.75;;;-0.21;99.65
51359;BME280;37448;51.588;7.248;2023-03-08T02:28:25;99371.75;;;-0.22;99.39
51359;BME280;37448;51.588;7.248;2023-03-08T02:30:30;99366.63;;;-0.22;99.50
51359;BME280;37448;51.588;7.248;2023-03-08T02:32:31;99364.06;;;-0.21;99.66
51359;BME280;37448;51.588;7.248;2023-03-08T02:34:34;99356.34;;;-0.22;99.63
51359;BME280;37448;51.588;7.248;2023-03-08T02:36:34;99354.63;;;-0.25;99.53
51359;BME280;37448;51.588;7.248;2023-03-08T02:38:35;99353.78;;;-0.25;99.61
51359;BME280;37448;51.588;7.248;2023-03-08T02:40:36;99351.22;;;-0.25;99.64
51359;BME280;37448;51.588;7.248;2023-03-08T02:42:37;99352.06;;;-0.26;99.53
51359;BME280;37448;51.588;7.248;2023-03-08T02:44:37;99357.22;;;-0.26;99.91
51359;BME280;37448;51.588;7.248;2023-03-08T02:46:38;99346.06;;;-0.27;99.85
51359;BME280;37448;51.588;7.248;2023-03-08T02:48:38;99349.50;;;-0.26;99.53
51359;BME280;37448;51.588;7.248;2023-03-08T02:50:38;99344.38;;;-0.26;99.82
51359;BME280;37448;51.588;7.248;2023-03-08T02:52:39;99352.06;;;-0.25;99.83
51359;BME280;37448;51.588;7.248;2023-03-08T02:54:39;99346.09;;;-0.24;100.00
51359;BME280;37448;51.588;7.248;2023-03-08T02:56:40;99349.50;;;-0.23;99.80
51359;BME280;37448;51.588;7.248;2023-03-08T02:58:43;99350.38;;;-0.21;99.77
51359;BME280;37448;51.588;7.248;2023-03-08T03:00:43;99344.38;;;-0.20;99.71
51359;BME280;37448;51.588;7.248;2023-03-08T03:02:44;99346.94;;;-0.17;99.96
51359;BME280;37448;51.588;7.248;2023-03-08T03:04:44;99347.81;;;-0.20;99.84
51359;BME280;37448;51.588;7.248;2023-03-08T03:06:45;99340.09;;;-0.18;99.54
51359;BME280;37448;51.588;7.248;2023-03-08T03:08:47;99339.25;;;-0.17;99.75
51359;BME280;37448;51.588;7.248;2023-03-08T03:10:48;99336.69;;;-0.16;100.00
51359;BME280;37448;51.588;7.248;2023-03-08T03:12:48;99337.56;;;-0.17;99.99
51359;BME280;37448;51.588;7.248;2023-03-08T03:14:52;99334.97;;;-0.18;99.88
51359;BME280;37448;51.588;7.248;2023-03-08T03:16:52;99337.56;;;-0.13;99.77
51359;BME280;37448;51.588;7.248;2023-03-08T03:18:54;99329.84;;;-0.15;99.90
51359;BME280;37448;51.588;7.248;2023-03-08T03:21:01;99331.56;;;-0.14;100.00
51359;BME280;37448;51.588;7.248;2023-03-08T03:23:02;99331.56;;;-0.14;100.00
51359;BME280;37448;51.588;7.248;2023-03-08T03:25:13;99329.00;;;-0.11;100.00
51359;BME280;37448;51.588;7.248;2023-03-08T03:27:15;99335.00;;;-0.12;100.00
51359;BME280;37448;51.588;7.248;2023-03-08T03:29:16;99331.59;;;-0.11;99.93
51359;BME280;37448;51.588;7.248;2023-03-08T03:31:21;99332.41;;;-0.10;100.00
51359;BME280;37448;51.588;7.248;2023-03-08T03:33:22;99345.28;;;-0.12;100.00
51359;BME280;37448;51.588;7.248;2023-03-08T03:35:22;99328.13;;;-0.13;100.00
51359;BME280;37448;51.588;7.248;2023-03-08T03:37:23;99329.00;;;-0.16;99.79
51359;BME280;37448;51.588;7.248;2023-03-08T03:39:23;99332.44;;;-0.12;99.77
51359;BME280;37448;51.588;7.248;2023-03-08T03:41:24;99321.31;;;-0.11;99.80
51359;BME280;37448;51.588;7.248;2023-03-08T03:43:34;99322.16;;;-0.12;99.79
51359;BME280;37448;51.588;7.248;2023-03-08T03:45:35;99321.31;;;-0.11;99.83
51359;BME280;37448;51.588;7.248;2023-03-08T03:47:35;99326.44;;;-0.08;99.90
51359;BME280;37448;51.588;7.248;2023-03-08T03:49:38;99329.84;;;-0.07;99.87
51359;BME280;37448;51.588;7.248;2023-03-08T03:51:39;99328.13;;;-0.05;100.00
51359;BME280;37448;51.588;7.248;2023-03-08T03:53:48;99324.72;;;-0.06;100.00
51359;BME280;37448;51.588;7.248;2023-03-08T03:55:50;99321.28;;;-0.06;99.94
51359;BME280;37448;51.588;7.248;2023-03-08T03:57:50;99327.28;;;-0.07;99.99
51359;BME280;37448;51.588;7.248;2023-03-08T03:59:52;99323.88;;;-0.08;100.00
51359;BME280;37448;51.588;7.248;2023-03-08T04:01:53;99310.19;;;-0.08;100.00
51359;BME280;37448;51.588;7.248;2023-03-08T04:04:03;99303.34;;;-0.11;99.84
51359;BME280;37448;51.588;7.248;2023-03-08T04:06:07;99304.19;;;-0.09;100.00
51359;BME280;37448;51.588;7.248;2023-03-08T04:08:09;99298.22;;;-0.08;99.96
51359;BME280;37448;51.588;7.248;2023-03-08T04:10:13;99299.91;;;-0.08;100.00
51359;BME280;37448;51.588;7.248;2023-03-08T04:12:15;99308.47;;;-0.08;100.00
51359;BME280;37448;51.588;7.248;2023-03-08T04:14:15;99299.06;;;-0.12;100.00
51359;BME280;37448;51.588;7.248;2023-03-08T04:16:22;99289.63;;;-0.11;99.86
51359;BME280;37448;51.588;7.248;2023-03-08T04:18:22;99278.53;;;-0.12;99.73
51359;BME280;37448;51.588;7.248;2023-03-08T04:20:23;99273.38;;;-0.13;100.00
51359;BME280;37448;51.588;7.248;2023-03-08T04:22:28;99268.25;;;-0.15;99.71
51359;BME280;37448;51.588;7.248;2023-03-08T04:24:49;99269.94;;;-0.14;100.00
51359;BME280;37448;51.588;7.248;2023-03-08T04:26:55;99268.25;;;-0.15;99.96
51359;BME280;37448;51.588;7.248;2023-03-08T04:28:56;99265.69;;;-0.13;100.00
51359;BME280;37448;51.588;7.248;2023-03-08T04:30:59;99268.25;;;-0.15;100.00
51359;BME280;37448;51.588;7.248;2023-03-08T04:33:00;99261.41;;;-0.15;99.97
51359;BME280;37448;51.588;7.248;2023-03-08T04:35:08;99255.44;;;-0.20;100.00
51359;BME280;37448;51.588;7.248;2023-03-08T04:37:10;99261.41;;;-0.19;100.00
51359;BME280;37448;51.588;7.248;2023-03-08T04:39:11;99263.97;;;-0.19;100.00
51359;BME280;37448;51.588;7.248;2023-03-08T04:41:12;99257.16;;;-0.22;99.81
51359;BME280;37448;51.588;7.248;2023-03-08T04:43:20;99249.44;;;-0.20;99.79
51359;BME280;37448;51.588;7.248;2023-03-08T04:45:21;99248.56;;;-0.19;100.00
51359;BME280;37448;51.588;7.248;2023-03-08T04:47:21;99241.72;;;-0.20;99.99
51359;BME280;37448;51.588;7.248;2023-03-08T04:49:22;99241.72;;;-0.20;99.84
51359;BME280;37448;51.588;7.248;2023-03-08T04:51:27;99244.28;;;-0.20;99.82
51359;BME280;37448;51.588;7.248;2023-03-08T04:53:31;99242.59;;;-0.21;100.00
51359;BME280;37448;51.588;7.248;2023-03-08T04:55:31;99232.34;;;-0.23;99.92
51359;BME280;37448;51.588;7.248;2023-03-08T04:57:32;99231.47;;;-0.23;99.98
51359;BME280;37448;51.588;7.248;2023-03-08T04:59:34;99222.06;;;-0.23;100.00
51359;BME280;37448;51.588;7.248;2023-03-08T05:01:37;99219.50;;;-0.23;100.00
51359;BME280;37448;51.588;7.248;2023-03-08T05:03:38;99215.22;;;-0.25;100.00
51359;BME280;37448;51.588;7.248;2023-03-08T05:05:49;99209.22;;;-0.27;99.64
51359;BME280;37448;51.588;7.248;2023-03-08T05:07:50;99205.81;;;-0.28;99.83
51359;BME280;37448;51.588;7.248;2023-03-08T05:09:50;99208.38;;;-0.26;99.88
51359;BME280;37448;51.588;7.248;2023-03-08T05:11:51;99204.97;;;-0.32;99.71
51359;BME280;37448;51.588;7.248;2023-03-08T05:13:53;99210.09;;;-0.32;99.72
51359;BME280;37448;51.588;7.248;2023-03-08T05:15:55;99207.53;;;-0.35;99.46
51359;BME280;37448;51.588;7.248;2023-03-08T05:17:56;99194.69;;;-0.33;99.42
51359;BME280;37448;51.588;7.248;2023-03-08T05:19:56;99203.25;;;-0.33;99.64
51359;BME280;37448;51.588;7.248;2023-03-08T05:22:04;99197.28;;;-0.32;99.79
51359;BME280;37448;51.588;7.248;2023-03-08T05:24:05;99204.97;;;-0.32;99.50
51359;BME280;37448;51.588;7.248;2023-03-08T05:26:11;99193.00;;;-0.30;99.74
51359;BME280;37448;51.588;7.248;2023-03-08T05:28:12;99193.84;;;-0.34;99.81
51359;BME280;37448;51.588;7.248;2023-03-08T05:30:16;99189.56;;;-0.32;99.76
51359;BME280;37448;51.588;7.248;2023-03-08T05:32:17;99198.13;;;-0.33;99.62
51359;BME280;37448;51.588;7.248;2023-03-08T05:34:17;99193.84;;;-0.32;99.70
51359;BME280;37448;51.588;7.248;2023-03-08T05:36:20;99184.44;;;-0.32;99.78
51359;BME280;37448;51.588;7.248;2023-03-08T05:38:24;99179.31;;;-0.35;99.56
51359;BME280;37448;51.588;7.248;2023-03-08T05:40:25;99174.19;;;-0.35;99.50
51359;BME280;37448;51.588;7.248;2023-03-08T05:42:30;99174.19;;;-0.35;99.82
51359;BME280;37448;51.588;7.248;2023-03-08T05:44:30;99167.34;;;-0.36;99.78
51359;BME280;37448;51.588;7.248;2023-03-08T05:46:32;99161.34;;;-0.36;99.49
51359;BME280;37448;51.588;7.248;2023-03-08T05:48:35;99162.19;;;-0.39;99.35
51359;BME280;37448;51.588;7.248;2023-03-08T05:50:37;99152.78;;;-0.37;99.37
51359;BME280;37448;51.588;7.248;2023-03-08T05:52:38;99146.81;;;-0.36;99.60
51359;BME280;37448;51.588;7.248;2023-03-08T05:54:38;99146.81;;;-0.36;99.45
51359;BME280;37448;51.588;7.248;2023-03-08T05:56:43;99140.81;;;-0.35;99.93
51359;BME280;37448;51.588;7.248;2023-03-08T05:58:53;99139.94;;;-0.37;99.77
51359;BME280;37448;51.588;7.248;2023-03-08T06:00:55;99139.94;;;-0.37;99.70
51359;BME280;37448;51.588;7.248;2023-03-08T06:02:58;99123.72;;;-0.37;99.62
51359;BME280;37448;51.588;7.248;2023-03-08T06:04:59;99133.97;;;-0.37;99.55
51359;BME280;37448;51.588;7.248;2023-03-08T06:07:00;99126.28;;;-0.39;99.41
51359;BME280;37448;51.588;7.248;2023-03-08T06:09:07;99128.00;;;-0.42;99.43
51359;BME280;37448;51.588;7.248;2023-03-08T06:11:10;99117.72;;;-0.41;99.37
51359;BME280;37448;51.588;7.248;2023-03-08T06:13:11;99118.56;;;-0.39;99.45
51359;BME280;37448;51.588;7.248;2023-03-08T06:15:11;99116.00;;;-0.42;98.93
51359;BME280;37448;51.588;7.248;2023-03-08T06:17:13;99113.47;;;-0.40;99.06
51359;BME280;37448;51.588;7.248;2023-03-08T06:19:17;99115.16;;;-0.44;99.13
51359;BME280;37448;51.588;7.248;2023-03-08T06:21:19;99112.59;;;-0.44;98.91
51359;BME280;37448;51.588;7.248;2023-03-08T06:23:25;99114.31;;;-0.43;99.26
51359;BME280;37448;51.588;7.248;2023-03-08T06:25:25;99109.19;;;-0.46;98.96
51359;BME280;37448;51.588;7.248;2023-03-08T06:27:27;99107.47;;;-0.44;99.23
51359;BME280;37448;51.588;7.248;2023-03-08T06:29:30;99104.06;;;-0.41;99.00
51359;BME280;37448;51.588;7.248;2023-03-08T06:31:30;99092.06;;;-0.44;99.04
51359;BME280;37448;51.588;7.248;2023-03-08T06:33:32;99095.50;;;-0.48;99.32
51359;BME280;37448;51.588;7.248;2023-03-08T06:35:32;99093.81;;;-0.49;98.79
51359;BME280;37448;51.588;7.248;2023-03-08T06:37:35;99090.38;;;-0.51;98.59
51359;BME280;37448;51.588;7.248;2023-03-08T06:39:36;99086.97;;;-0.53;98.29
51359;BME280;37448;51.588;7.248;2023-03-08T06:41:39;99078.41;;;-0.52;98.33
51359;BME280;37448;51.588;7.248;2023-03-08T06:43:40;99076.72;;;-0.50;98.51
51359;BME280;37448;51.588;7.248;2023-03-08T06:45:40;99078.41;;;-0.52;98.43
51359;BME280;37448;51.588;7.248;2023-03-08T06:47:41;99079.28;;;-0.56;97.73
51359;BME280;37448;51.588;7.248;2023-03-08T06:49:43;99074.16;;;-0.53;98.17
51359;BME280;37448;51.588;7.248;2023-03-08T06:51:44;99069.88;;;-0.54;98.10
51359;BME280;37448;51.588;7.248;2023-03-08T06:53:45;99070.72;;;-0.57;98.13
51359;BME280;37448;51.588;7.248;2023-03-08T06:55:48;99073.28;;;-0.65;97.75
51359;BME280;37448;51.588;7.248;2023-03-08T06:57:49;99063.91;;;-0.61;97.98
51359;BME280;37448;51.588;7.248;2023-03-08T06:59:49;99064.72;;;-0.61;97.78
51359;BME280;37448;51.588;7.248;2023-03-08T07:01:49;99060.47;;;-0.57;98.12
51359;BME280;37448;51.588;7.248;2023-03-08T07:03:50;99063.03;;;-0.62;98.08
51359;BME280;37448;51.588;7.248;2023-03-08T07:05:52;99062.19;;;-0.64;98.10
51359;BME280;37448;51.588;7.248;2023-03-08T07:07:57;99059.66;;;-0.71;97.49
51359;BME280;37448;51.588;7.248;2023-03-08T07:09:57;99059.63;;;-0.73;97.47
51359;BME280;37448;51.588;7.248;2023-03-08T07:11:58;99063.03;;;-0.71;97.82
51359;BME280;37448;51.588;7.248;2023-03-08T07:13:58;99061.34;;;-0.69;97.63
51359;BME280;37448;51.588;7.248;2023-03-08T07:16:04;99063.06;;;-0.74;97.68
51359;BME280;37448;51.588;7.248;2023-03-08T07:18:05;99062.19;;;-0.79;97.60
51359;BME280;37448;51.588;7.248;2023-03-08T07:20:06;99062.19;;;-0.84;97.36
51359;BME280;37448;51.588;7.248;2023-03-08T07:22:07;99058.75;;;-0.77;97.75
51359;BME280;37448;51.588;7.248;2023-03-08T07:24:08;99059.66;;;-0.82;97.40
51359;BME280;37448;51.588;7.248;2023-03-08T07:26:10;99056.19;;;-0.84;97.42
51359;BME280;37448;51.588;7.248;2023-03-08T07:28:11;99057.06;;;-0.85;97.60
51359;BME280;37448;51.588;7.248;2023-03-08T07:30:13;99049.38;;;-0.84;97.84
51359;BME280;37448;51.588;7.248;2023-03-08T07:32:14;99049.38;;;-0.89;97.67
51359;BME280;37448;51.588;7.248;2023-03-08T07:34:14;99047.66;;;-0.87;97.94
51359;BME280;37448;51.588;7.248;2023-03-08T07:36:15;99044.25;;;-0.87;97.66
51359;BME280;37448;51.588;7.248;2023-03-08T07:38:16;99043.38;;;-0.88;97.94
51359;BME280;37448;51.588;7.248;2023-03-08T07:40:16;99036.56;;;-0.90;97.56
51359;BME280;37448;51.588;7.248;2023-03-08T07:42:17;99045.94;;;-0.88;97.93
51359;BME280;37448;51.588;7.248;2023-03-08T07:44:20;99038.25;;;-0.88;97.87
51359;BME280;37448;51.588;7.248;2023-03-08T07:46:20;99039.13;;;-0.92;97.87
51359;BME280;37448;51.588;7.248;2023-03-08T07:48:20;99038.28;;;-0.91;97.73
51359;BME280;37448;51.588;7.248;2023-03-08T07:50:21;99034.00;;;-0.92;97.99
51359;BME280;37448;51.588;7.248;2023-03-08T07:52:29;99030.56;;;-0.91;97.82
51359;BME280;37448;51.588;7.248;2023-03-08T07:54:29;99032.28;;;-0.93;97.95
51359;BME280;37448;51.588;7.248;2023-03-08T07:56:30;99031.44;;;-0.93;98.05
51359;BME280;37448;51.588;7.248;2023-03-08T07:58:30;99035.72;;;-0.97;98.02
51359;BME280;37448;51.588;7.248;2023-03-08T08:00:30;99034.00;;;-1.01;97.75
51359;BME280;37448;51.588;7.248;2023-03-08T08:02:31;99030.59;;;-1.03;97.99
51359;BME280;37448;51.588;7.248;2023-03-08T08:04:33;99030.59;;;-0.97;98.04
51359;BME280;37448;51.588;7.248;2023-03-08T08:06:38;99028.88;;;-1.01;97.81
51359;BME280;37448;51.588;7.248;2023-03-08T08:08:39;99025.47;;;-1.03;97.81
51359;BME280;37448;51.588;7.248;2023-03-08T08:10:40;99028.03;;;-1.00;97.98
51359;BME280;37448;51.588;7.248;2023-03-08T08:12:41;99016.91;;;-0.99;97.89
51359;BME280;37448;51.588;7.248;2023-03-08T08:14:41;99016.91;;;-0.99;98.05
51359;BME280;37448;51.588;7.248;2023-03-08T08:16:41;99007.50;;;-0.98;98.26
51359;BME280;37448;51.588;7.248;2023-03-08T08:18:42;99008.38;;;-1.04;98.15
51359;BME280;37448;51.588;7.248;2023-03-08T08:20:42;99006.66;;;-0.96;98.23
51359;BME280;37448;51.588;7.248;2023-03-08T08:22:43;99001.56;;;-1.05;98.01
51359;BME280;37448;51.588;7.248;2023-03-08T08:24:43;99003.25;;;-1.04;98.04
51359;BME280;37448;51.588;7.248;2023-03-08T08:26:44;99003.25;;;-1.01;98.27
51359;BME280;37448;51.588;7.248;2023-03-08T08:28:46;98997.25;;;-1.02;98.18
51359;BME280;37448;51.588;7.248;2023-03-08T08:31:03;98989.59;;;-1.06;98.22
51359;BME280;37448;51.588;7.248;2023-03-08T08:33:04;98990.44;;;-1.09;97.61
51359;BME280;37448;51.588;7.248;2023-03-08T08:35:05;98987.88;;;-1.12;97.74
51359;BME280;37448;51.588;7.248;2023-03-08T08:37:06;98987.03;;;-1.16;97.50
51359;BME280;37448;51.588;7.248;2023-03-08T08:39:06;98981.03;;;-1.14;97.45
51359;BME280;37448;51.588;7.248;2023-03-08T08:41:07;98976.78;;;-1.08;97.75
51359;BME280;37448;51.588;7.248;2023-03-08T08:43:07;98974.19;;;-1.09;98.06
51359;BME280;37448;51.588;7.248;2023-03-08T08:45:08;98970.81;;;-1.08;98.10
51359;BME280;37448;51.588;7.248;2023-03-08T08:47:09;98972.50;;;-1.10;97.85
51359;BME280;37448;51.588;7.248;2023-03-08T08:49:09;98965.69;;;-1.05;97.80
51359;BME280;37448;51.588;7.248;2023-03-08T08:51:11;98960.56;;;-1.05;97.78
51359;BME280;37448;51.588;7.248;2023-03-08T08:53:12;98960.56;;;-1.08;97.90
51359;BME280;37448;51.588;7.248;2023-03-08T08:55:13;98958.00;;;-1.05;97.96
51359;BME280;37448;51.588;7.248;2023-03-08T08:57:13;98961.38;;;-1.09;97.86
51359;BME280;37448;51.588;7.248;2023-03-08T08:59:13;98950.28;;;-1.14;97.62
51359;BME280;37448;51.588;7.248;2023-03-08T09:01:27;98947.72;;;-1.07;97.78
51359;BME280;37448;51.588;7.248;2023-03-08T09:03:27;98946.00;;;-1.02;98.03
51359;BME280;37448;51.588;7.248;2023-03-08T09:05:28;98935.78;;;-1.06;97.83
51359;BME280;37448;51.588;7.248;2023-03-08T09:07:29;98936.66;;;-1.07;97.54
51359;BME280;37448;51.588;7.248;2023-03-08T09:09:29;98939.22;;;-1.07;97.55
51359;BME280;37448;51.588;7.248;2023-03-08T09:11:30;98946.03;;;-1.03;97.58
51359;BME280;37448;51.588;7.248;2023-03-08T09:13:32;98936.63;;;-1.04;97.84
51359;BME280;37448;51.588;7.248;2023-03-08T09:15:34;98936.63;;;-1.13;97.31
51359;BME280;37448;51.588;7.248;2023-03-08T09:17:34;98931.53;;;-1.07;97.55
51359;BME280;37448;51.588;7.248;2023-03-08T09:19:35;98927.25;;;-1.13;97.53
51359;BME280;37448;51.588;7.248;2023-03-08T09:21:35;98920.38;;;-0.98;97.46
51359;BME280;37448;51.588;7.248;2023-03-08T09:23:35;98921.25;;;-1.01;97.57
51359;BME280;37448;51.588;7.248;2023-03-08T09:25:36;98917.81;;;-0.97;97.96
51359;BME280;37448;51.588;7.248;2023-03-08T09:27:38;98919.50;;;-0.93;97.98
51359;BME280;37448;51.588;7.248;2023-03-08T09:29:38;98910.97;;;-0.95;97.79
51359;BME280;37448;51.588;7.248;2023-03-08T09:31:39;98907.59;;;-1.00;97.81
51359;BME280;37448;51.588;7.248;2023-03-08T09:33:46;98909.25;;;-0.90;97.86
51359;BME280;37448;51.588;7.248;2023-03-08T09:35:57;98901.56;;;-0.88;97.64
51359;BME280;37448;51.588;7.248;2023-03-08T09:37:58;98894.72;;;-0.86;97.70
51359;BME280;37448;51.588;7.248;2023-03-08T09:40:00;98898.97;;;-0.87;97.74
51359;BME280;37448;51.588;7.248;2023-03-08T09:42:02;98895.59;;;-0.82;97.34
51359;BME280;37448;51.588;7.248;2023-03-08T09:46:22;98897.28;;;-0.91;97.00
51359;BME280;37448;51.588;7.248;2023-03-08T09:48:29;98904.97;;;-0.88;97.20
51359;BME280;37448;51.588;7.248;2023-03-08T09:50:43;98900.69;;;-0.85;96.90
51359;BME280;37448;51.588;7.248;2023-03-08T09:52:53;98893.03;;;-0.82;97.04
51359;BME280;37448;51.588;7.248;2023-03-08T09:55:00;98882.78;;;-0.90;96.86
51359;BME280;37448;51.588;7.248;2023-03-08T09:57:04;98882.78;;;-0.90;96.71
51359;BME280;37448;51.588;7.248;2023-03-08T09:59:11;98879.31;;;-0.77;97.24
51359;BME280;37448;51.588;7.248;2023-03-08T10:07:55;98865.63;;;-0.74;96.78
51359;BME280;37448;51.588;7.248;2023-03-08T10:10:12;98873.34;;;-0.79;96.62
51359;BME280;37448;51.588;7.248;2023-03-08T10:12:22;98877.59;;;-0.71;96.63
51359;BME280;37448;51.588;7.248;2023-03-08T10:14:34;98873.28;;;-0.65;96.48
51359;BME280;37448;51.588;7.248;2023-03-08T10:16:39;98865.56;;;-0.62;96.59
51359;BME280;37448;51.588;7.248;2023-03-08T10:18:49;98868.16;;;-0.65;96.08
51359;BME280;37448;51.588;7.248;2023-03-08T10:20:52;98874.13;;;-0.56;96.40
51359;BME280;37448;51.588;7.248;2023-03-08T10:22:57;98864.72;;;-0.57;96.08
51359;BME280;37448;51.588;7.248;2023-03-08T10:25:17;98860.47;;;-0.68;95.62
51359;BME280;37448;51.588;7.248;2023-03-08T10:27:26;98861.31;;;-0.60;95.84
51359;BME280;37448;51.588;7.248;2023-03-08T10:29:27;98857.00;;;-0.56;96.16
51359;BME280;37448;51.588;7.248;2023-03-08T10:31:29;98849.31;;;-0.54;96.17
51359;BME280;37448;51.588;7.248;2023-03-08T10:33:33;98849.31;;;-0.61;95.51
51359;BME280;37448;51.588;7.248;2023-03-08T10:35:37;98839.94;;;-0.63;95.90
51359;BME280;37448;51.588;7.248;2023-03-08T10:37:38;98836.53;;;-0.67;96.23
51359;BME280;37448;51.588;7.248;2023-03-08T10:39:50;98821.13;;;-0.64;96.29
51359;BME280;37448;51.588;7.248;2023-03-08T10:42:13;98826.28;;;-0.62;96.41
51359;BME280;37448;51.588;7.248;2023-03-08T10:44:28;98822.88;;;-0.74;95.92
51359;BME280;37448;51.588;7.248;2023-03-08T10:46:30;98800.69;;;-0.75;95.78
51359;BME280;37448;51.588;7.248;2023-03-08T10:48:31;98782.66;;;-0.61;96.52
51359;BME280;37448;51.588;7.248;2023-03-08T10:50:34;98796.34;;;-0.62;96.48
51359;BME280;37448;51.588;7.248;2023-03-08T10:52:35;98797.25;;;-0.69;96.18
51359;BME280;37448;51.588;7.248;2023-03-08T10:54:35;98811.75;;;-0.66;96.18
51359;BME280;37448;51.588;7.248;2023-03-08T10:56:44;98812.56;;;-0.58;96.14
51359;BME280;37448;51.588;7.248;2023-03-08T10:58:53;98802.28;;;-0.50;95.82